Time;durP1;ratioP1;P1;durP2;ratioP2;P2;SDS_P1;SDS_P2;PMS_P1;PMS_P2;Temp;Humidity;BMP_temperature;BMP_pressure;BME280_temperature;BME280_humidity;BME280_pressure;Samples;Min_cycle;Max_cycle;Signal;HPM_P1;HPM_P2
2023/10/12 00:01:23;;;;;;;1.60;1.30;;;;;;;19.69;55.21;96854.91;10288345;28;20362;-29
2023/10/12 00:06:30;;;;;;;2.75;1.70;;;;;;;19.67;54.84;96845.63;10293196;28;20034;-29
2023/10/12 00:11:37;;;;;;;3.83;1.30;;;;;;;19.69;54.86;96849.84;10294038;28;20031;-29
2023/10/12 00:16:37;;;;;;;2.38;1.50;;;;;;;19.70;54.81;96850.69;10285570;28;20118;-28
2023/10/12 00:21:37;;;;;;;1.90;1.40;;;;;;;19.70;54.83;96851.56;10281900;28;20035;-29
2023/10/12 00:26:41;;;;;;;1.80;1.20;;;;;;;19.69;54.96;96839.66;10292528;28;20046;-30
2023/10/12 00:31:43;;;;;;;1.92;1.25;;;;;;;19.70;55.27;96845.63;10292207;28;20054;-29
2023/10/12 00:36:45;;;;;;;1.35;1.10;;;;;;;19.69;55.03;96833.75;10292889;28;20109;-29
2023/10/12 00:41:51;;;;;;;1.60;1.13;;;;;;;19.70;54.58;96827.84;10292308;28;20030;-30
2023/10/12 00:46:58;;;;;;;2.05;1.55;;;;;;;19.70;54.89;96825.28;10290016;28;20038;-29
2023/10/12 00:52:08;;;;;;;1.98;1.60;;;;;;;19.70;54.89;96820.22;10296239;28;20085;-30
2023/10/12 00:57:09;;;;;;;1.48;1.20;;;;;;;19.70;54.87;96825.28;10288690;28;20573;-29
2023/10/12 01:02:11;;;;;;;2.25;1.42;;;;;;;19.69;55.07;96818.53;10285330;28;20138;-29
2023/10/12 01:07:19;;;;;;;1.88;1.40;;;;;;;19.69;54.73;96818.53;10288254;28;20081;-29
2023/10/12 01:12:19;;;;;;;1.58;1.48;;;;;;;19.69;54.56;96813.44;10293453;28;20047;-28
2023/10/12 01:17:35;;;;;;;3.13;1.13;;;;;;;19.68;54.81;96814.28;10289608;28;20089;-31
2023/10/12 01:22:35;;;;;;;1.52;0.98;;;;;;;19.68;54.89;96797.34;10289610;28;20309;-29
2023/10/12 01:27:41;;;;;;;1.33;1.10;;;;;;;19.68;54.82;96807.50;10290233;28;20807;-29
2023/10/12 01:32:41;;;;;;;2.27;1.30;;;;;;;19.69;54.98;96803.28;10280784;28;20039;-29
2023/10/12 01:37:47;;;;;;;1.43;1.33;;;;;;;19.68;54.77;96792.25;10288626;28;20294;-29
2023/10/12 01:42:50;;;;;;;1.87;1.47;;;;;;;19.70;54.98;96794.81;10276293;28;20290;-29
2023/10/12 01:47:55;;;;;;;1.60;1.30;;;;;;;19.69;54.81;96798.19;10289688;28;20043;-29
2023/10/12 01:52:58;;;;;;;2.10;1.33;;;;;;;19.70;55.07;96795.66;10289545;28;20034;-29
2023/10/12 01:57:59;;;;;;;2.50;1.52;;;;;;;19.69;54.74;96798.19;10283478;28;20448;-29
2023/10/12 02:03:10;;;;;;;1.45;1.02;;;;;;;19.69;55.07;96793.13;10275931;28;20054;-30
2023/10/12 02:08:11;;;;;;;1.45;1.35;;;;;;;19.69;54.83;96782.97;10289151;28;20457;-28
2023/10/12 02:13:12;;;;;;;1.10;0.93;;;;;;;19.69;54.73;96782.97;10276426;28;20041;-28
2023/10/12 02:18:15;;;;;;;1.20;1.10;;;;;;;19.67;54.80;96785.50;10285324;28;20034;-29
2023/10/12 02:23:15;;;;;;;1.27;1.17;;;;;;;19.68;54.26;96781.28;10286056;28;20046;-30
2023/10/12 02:28:22;;;;;;;1.27;1.00;;;;;;;19.68;54.75;96791.44;10277313;28;20037;-26
2023/10/12 02:33:27;;;;;;;2.85;1.40;;;;;;;19.68;54.76;96781.28;10283651;28;20305;-26
2023/10/12 02:38:28;;;;;;;2.38;1.23;;;;;;;19.68;54.22;96788.91;10286212;28;20034;-27
2023/10/12 02:43:31;;;;;;;1.33;1.10;;;;;;;19.69;54.89;96788.03;10282184;28;20042;-27
2023/10/12 02:48:36;;;;;;;1.15;1.00;;;;;;;19.70;54.83;96794.81;10289309;28;20045;-26
2023/10/12 02:53:39;;;;;;;1.33;1.17;;;;;;;19.67;54.75;96794.84;10288305;28;20034;-26
2023/10/12 02:58:44;;;;;;;1.65;0.88;;;;;;;19.68;54.98;96804.13;10285718;28;20038;-28
2023/10/12 03:03:48;;;;;;;1.38;1.00;;;;;;;19.68;54.77;96819.38;10281293;28;20050;-27
2023/10/12 03:09:03;;;;;;;2.10;1.42;;;;;;;19.71;54.95;96820.22;10283772;28;20041;-26
2023/10/12 03:14:13;;;;;;;1.25;1.13;;;;;;;19.68;54.88;96811.75;10287966;28;20086;-27
2023/10/12 03:24:25;;;;;;;2.55;1.58;;;;;;;19.68;54.83;96806.69;10288315;28;20121;-27
2023/10/12 03:29:26;;;;;;;1.30;1.20;;;;;;;19.66;54.98;96799.06;10284835;28;20125;-26
2023/10/12 03:34:35;;;;;;;2.92;1.30;;;;;;;19.68;54.81;96806.69;10282194;28;20039;-28
2023/10/12 03:44:49;;;;;;;1.95;1.55;;;;;;;19.67;54.71;96802.44;10272529;28;20043;-26
2023/10/12 04:05:18;;;;;;;2.53;0.95;;;;;;;19.66;54.71;96803.31;10269834;28;20180;-28
2023/10/12 04:21:03;;;;;;;2.88;1.50;;;;;;;19.68;54.80;96787.19;10267705;28;20592;-26
2023/10/12 04:31:34;;;;;;;;;;;;;;;19.70;54.83;96785.50;10275659;28;20514;-27
2023/10/12 04:46:48;;;;;;;10.70;4.22;;;;;;;19.73;55.34;96804.94;10288668;28;20050;-26
2023/10/12 04:52:09;;;;;;;12.77;4.00;;;;;;;19.74;55.32;96809.16;10289830;28;20046;-26
2023/10/12 05:12:23;;;;;;;2.25;1.45;;;;;;;19.69;54.82;96813.44;10283918;28;20493;-27
2023/10/12 05:17:24;;;;;;;2.20;1.42;;;;;;;19.68;54.60;96821.91;10275365;28;20089;-29
2023/10/12 05:22:24;;;;;;;3.08;1.67;;;;;;;19.69;54.28;96821.06;10286534;28;20037;-29
2023/10/12 05:27:33;;;;;;;13.17;3.93;;;;;;;19.66;54.52;96816.00;10289638;28;20042;-29
2023/10/12 05:32:43;;;;;;;2.60;2.10;;;;;;;19.60;54.96;96821.09;10289143;28;20493;-28
2023/10/12 05:37:49;;;;;;;7.40;2.50;;;;;;;19.64;54.52;96825.31;10289079;28;20027;-29
2023/10/12 05:42:50;;;;;;;9.45;2.65;;;;;;;19.66;54.69;96833.78;10276067;28;20397;-30
2023/10/12 05:47:52;;;;;;;6.57;2.35;;;;;;;19.68;54.84;96842.25;10279074;28;20046;-29
2023/10/12 05:52:59;;;;;;;7.53;3.88;;;;;;;19.72;54.92;96838.81;10289634;28;20043;-29
2023/10/12 05:58:11;;;;;;;4.35;2.47;;;;;;;19.70;54.76;96835.44;10288775;28;20035;-29
2023/10/12 06:03:15;;;;;;;2.85;2.10;;;;;;;19.69;54.80;96841.38;10284751;28;20078;-28
2023/10/12 06:08:18;;;;;;;5.55;1.77;;;;;;;19.66;54.61;96854.09;10285745;28;20113;-29
2023/10/12 06:13:23;;;;;;;3.72;1.80;;;;;;;19.65;54.62;96860.88;10285353;28;20043;-30
2023/10/12 06:18:29;;;;;;;3.03;2.08;;;;;;;19.65;54.74;96868.47;10288534;28;20397;-28
2023/10/12 06:23:30;;;;;;;4.57;1.92;;;;;;;19.66;54.59;96880.34;10288272;28;20031;-29
2023/10/12 06:28:31;;;;;;;5.10;1.70;;;;;;;19.66;54.65;96885.41;10274394;28;20043;-29
2023/10/12 06:33:31;;;;;;;4.60;2.10;;;;;;;19.66;54.71;96884.59;10281362;28;20035;-30
2023/10/12 06:38:47;;;;;;;2.13;1.47;;;;;;;19.66;54.52;96889.66;10272439;28;20050;-29
2023/10/12 06:48:58;;;;;;;2.10;1.80;;;;;;;19.66;54.58;96890.50;10283155;28;20041;-28
2023/10/12 06:54:17;;;;;;;4.30;1.83;;;;;;;19.66;55.03;96899.81;10283799;28;20482;-30
2023/10/12 07:04:27;;;;;;;3.22;1.52;;;;;;;19.66;54.74;96899.81;10287266;28;20058;-29
2023/10/12 07:09:39;;;;;;;2.10;1.40;;;;;;;19.66;54.68;96910.81;10280822;28;20022;-28
2023/10/12 07:14:46;;;;;;;3.03;2.00;;;;;;;19.66;54.60;96912.53;10286090;28;20432;-29
2023/10/12 07:19:47;;;;;;;3.72;1.60;;;;;;;19.66;54.70;96922.69;10279471;28;20037;-29
2023/10/12 07:24:56;;;;;;;2.67;1.70;;;;;;;19.67;54.78;96921.84;10286870;28;20043;-29
2023/10/12 07:30:30;;;;;;;3.47;1.98;;;;;;;19.69;54.51;96935.38;10283805;28;20051;-30
2023/10/12 07:35:32;;;;;;;2.08;1.88;;;;;;;19.68;54.67;96937.06;10279590;28;20053;-29
2023/10/12 07:40:48;;;;;;;1.98;1.60;;;;;;;19.66;54.63;96925.22;10275125;28;20027;-29
2023/10/12 07:45:49;;;;;;;2.10;1.65;;;;;;;19.63;54.67;96895.59;10284240;28;20544;-29
2023/10/12 07:50:49;;;;;;;2.33;1.75;;;;;;;19.66;54.59;96894.75;10281205;28;20051;-29
2023/10/12 07:55:53;;;;;;;5.60;2.90;;;;;;;19.69;54.74;96907.44;10273577;28;20125;-29
2023/10/12 08:01:19;;;;;;;5.45;3.63;;;;;;;19.71;55.25;96918.44;10282258;28;20282;-29
2023/10/12 08:06:15;;;;;;;2.53;1.83;;;;;;;19.68;54.94;96898.13;10279647;28;20118;-28
2023/10/12 08:11:28;;;;;;;4.30;3.15;;;;;;;19.68;54.83;96904.03;10278573;28;20038;-29
2023/10/12 08:16:28;;;;;;;5.28;3.47;;;;;;;19.70;54.78;96901.50;10279977;28;20038;-29
2023/10/12 08:21:32;;;;;;;6.00;3.50;;;;;;;19.72;54.84;96889.63;10283016;28;20026;-29
2023/10/12 08:26:35;;;;;;;5.80;3.05;;;;;;;19.70;54.66;96897.28;10287676;28;20293;-29
2023/10/12 08:31:43;;;;;;;2.40;1.50;;;;;;;19.67;54.75;96899.81;10281871;28;20078;-29
2023/10/12 08:47:40;;;;;;;2.80;1.83;;;;;;;19.66;54.61;96890.50;10281989;28;20529;-29
2023/10/12 08:52:50;;;;;;;2.40;1.55;;;;;;;19.68;54.83;96898.94;10289360;28;20035;-28
2023/10/12 08:58:01;;;;;;;2.13;1.50;;;;;;;19.68;54.72;96900.66;10291327;28;20110;-28
2023/10/12 09:03:13;;;;;;;2.05;1.67;;;;;;;19.67;54.59;96897.25;10288115;28;20054;-30
2023/10/12 09:13:27;;;;;;;4.37;2.97;;;;;;;19.66;54.89;96899.81;10279726;28;20469;-28
2023/10/12 09:18:30;;;;;;;2.63;1.63;;;;;;;19.67;54.88;96897.25;10279447;28;20097;-28
2023/10/12 09:34:31;;;;;;;3.28;2.05;;;;;;;19.68;54.80;96890.50;10290764;28;20557;-29
2023/10/12 09:39:15;;;;;;;4.10;1.92;;;;;;;19.68;55.20;96877.81;10282559;28;20023;-30
2023/10/12 09:44:16;;;;;;;1.83;1.30;;;;;;;19.68;54.87;96877.81;10287135;28;20023;-29
2023/10/12 09:49:22;;;;;;;1.80;1.70;;;;;;;19.68;54.89;96880.34;10286859;28;20031;-29
2023/10/12 09:54:28;;;;;;;3.40;2.78;;;;;;;19.69;54.94;96871.88;10289516;28;20034;-29
2023/10/12 09:59:30;;;;;;;1.85;1.45;;;;;;;19.72;55.54;96876.94;10288790;28;20031;-30
2023/10/12 10:04:34;;;;;;;2.10;1.88;;;;;;;19.75;55.07;96877.78;10286762;28;20051;-29
2023/10/12 10:09:38;;;;;;;2.22;1.67;;;;;;;19.79;54.75;96876.94;10286814;28;20034;-29
2023/10/12 10:14:44;;;;;;;2.30;1.70;;;;;;;19.81;54.87;96874.38;10288732;28;20047;-29
2023/10/12 10:19:51;;;;;;;1.77;1.57;;;;;;;19.80;54.94;96883.69;10288747;28;20767;-29
2023/10/12 10:24:58;;;;;;;1.98;1.70;;;;;;;19.80;54.86;96885.38;10261479;28;20035;-29
2023/10/12 10:30:00;;;;;;;3.10;2.00;;;;;;;19.84;54.36;96895.53;10269757;28;20034;-29
2023/10/12 10:35:07;;;;;;;2.45;1.90;;;;;;;19.84;55.24;96882.00;10283303;28;20035;-29
2023/10/12 10:40:09;;;;;;;2.47;1.45;;;;;;;19.86;54.79;96876.03;10286463;28;20041;-29
2023/10/12 10:45:15;;;;;;;2.70;1.85;;;;;;;19.85;54.76;96865.91;10282815;28;20536;-29
2023/10/12 10:50:17;;;;;;;5.40;1.67;;;;;;;19.85;55.04;96866.72;10280245;28;20027;-29
2023/10/12 10:55:24;;;;;;;2.25;1.90;;;;;;;19.86;55.07;96862.50;10286174;28;20286;-28
2023/10/12 11:00:33;;;;;;;2.55;1.45;;;;;;;19.87;54.82;96874.34;10286608;28;20112;-29
2023/10/12 11:05:37;;;;;;;2.85;1.55;;;;;;;19.84;55.09;96854.03;10279917;28;20034;-29
2023/10/12 11:11:14;;;;;;;2.10;1.80;;;;;;;19.85;55.40;96860.81;10286807;28;20034;-30
2023/10/12 11:16:20;;;;;;;6.22;1.98;;;;;;;19.85;55.15;96845.56;10285765;28;20049;-30
2023/10/12 11:21:27;;;;;;;2.88;2.28;;;;;;;19.84;55.62;96838.81;10286940;28;20037;-29
2023/10/12 11:26:29;;;;;;;3.80;1.98;;;;;;;19.83;55.47;96837.13;10285392;28;20034;-29
2023/10/12 11:31:30;;;;;;;9.90;2.83;;;;;;;19.85;55.65;96840.50;10286739;28;20030;-29
2023/10/12 11:36:32;;;;;;;7.00;3.10;;;;;;;19.86;55.31;96842.19;10270982;28;20027;-29
2023/10/12 11:41:34;;;;;;;10.55;2.30;;;;;;;19.84;55.68;96838.81;10279432;28;20031;-29
2023/10/12 11:46:43;;;;;;;5.95;2.70;;;;;;;19.83;55.46;96837.13;10269387;28;20089;-29
2023/10/12 11:51:53;;;;;;;3.63;2.05;;;;;;;19.83;55.47;96839.66;10278799;28;20593;-30
2023/10/12 11:56:53;;;;;;;2.85;2.47;;;;;;;19.83;55.52;96832.03;10291899;28;20031;-29
2023/10/12 12:01:57;;;;;;;5.53;2.53;;;;;;;19.82;55.58;96841.34;10272183;28;20019;-28
2023/10/12 12:06:59;;;;;;;4.68;2.50;;;;;;;19.82;55.64;96846.41;10273379;28;20035;-28
2023/10/12 12:12:00;;;;;;;2.60;2.40;;;;;;;19.81;55.64;96836.25;10288059;28;20043;-28
2023/10/12 12:17:01;;;;;;;3.40;2.03;;;;;;;19.81;55.69;96832.03;10285757;28;20038;-29
2023/10/12 12:22:01;;;;;;;7.65;2.60;;;;;;;19.80;55.56;96832.88;10293367;28;20086;-28
2023/10/12 12:27:01;;;;;;;2.53;2.23;;;;;;;19.82;55.84;96831.19;10286985;28;20035;-29
2023/10/12 12:32:03;;;;;;;4.43;2.37;;;;;;;19.80;55.64;96827.81;10285980;28;20035;-30
2023/10/12 12:37:07;;;;;;;5.30;2.03;;;;;;;19.81;55.87;96818.47;10284122;28;20102;-29
2023/10/12 12:42:09;;;;;;;5.03;2.60;;;;;;;19.80;55.64;96817.66;10284742;28;20361;-28
2023/10/12 12:47:11;;;;;;;5.22;2.20;;;;;;;19.81;55.96;96783.75;10292276;28;20178;-29
2023/10/12 12:52:12;;;;;;;3.83;2.50;;;;;;;19.81;55.62;96798.16;10289073;28;20469;-29
2023/10/12 12:57:14;;;;;;;3.28;2.20;;;;;;;19.81;55.75;96801.53;10282851;28;20504;-29
2023/10/12 13:02:17;;;;;;;5.22;2.85;;;;;;;19.81;55.89;96799.00;10283550;28;20074;-29
2023/10/12 13:07:18;;;;;;;6.03;2.00;;;;;;;19.77;55.94;96776.16;10271146;28;20398;-29
2023/10/12 13:12:18;;;;;;;3.63;2.10;;;;;;;19.82;55.70;96785.44;10277836;28;20030;-28
2023/10/12 13:17:18;;;;;;;4.53;2.73;;;;;;;19.82;55.80;96794.75;10281352;28;20031;-29
2023/10/12 13:22:19;;;;;;;2.37;1.83;;;;;;;19.82;55.56;96794.75;10285721;28;20106;-28
2023/10/12 13:27:21;;;;;;;4.40;2.30;;;;;;;19.82;55.60;96799.81;10290108;28;20137;-29
2023/10/12 13:32:21;;;;;;;4.53;2.10;;;;;;;19.74;55.55;96781.22;10290787;28;20109;-30
2023/10/12 13:37:22;;;;;;;2.88;1.90;;;;;;;19.83;55.86;96791.38;10286302;28;20433;-29
2023/10/12 13:42:23;;;;;;;5.40;2.07;;;;;;;19.81;55.62;96793.06;10288335;28;20023;-29
2023/10/12 13:47:25;;;;;;;3.63;2.58;;;;;;;19.80;55.88;96781.22;10297889;28;20396;-28
2023/10/12 13:52:25;;;;;;;3.70;2.08;;;;;;;19.81;55.94;96782.91;10283424;28;20035;-30
2023/10/12 13:57:25;;;;;;;2.70;2.00;;;;;;;19.82;55.57;96782.03;10282228;28;20038;-29
2023/10/12 14:02:27;;;;;;;2.97;2.20;;;;;;;19.81;55.62;96770.19;10289819;28;20286;-29
2023/10/12 14:07:27;;;;;;;2.88;2.22;;;;;;;19.82;55.77;96764.25;10286739;28;20089;-28
2023/10/12 14:12:27;;;;;;;2.13;1.70;;;;;;;19.81;55.79;96760.91;10287799;28;20505;-28
2023/10/12 14:17:28;;;;;;;2.57;2.00;;;;;;;19.83;55.63;96763.44;10289036;28;20039;-29
2023/10/12 14:22:28;;;;;;;3.90;2.80;;;;;;;19.82;56.25;96764.25;10288411;28;20046;-29
2023/10/12 14:27:29;;;;;;;3.20;2.60;;;;;;;19.82;55.85;96759.19;10294127;28;20301;-30
2023/10/12 14:32:30;;;;;;;3.13;1.90;;;;;;;19.77;55.76;96749.03;10283499;28;20051;-29
2023/10/12 14:37:36;;;;;;;4.07;1.95;;;;;;;19.82;55.79;96759.19;10281907;28;20031;-29
2023/10/12 14:42:40;;;;;;;1.88;1.70;;;;;;;19.82;55.60;96749.88;10283264;28;20389;-30
2023/10/12 14:47:44;;;;;;;3.10;1.98;;;;;;;19.82;55.76;96746.47;10286656;28;20117;-29
2023/10/12 14:52:44;;;;;;;4.20;2.45;;;;;;;19.82;55.69;96738.84;10282516;28;20042;-29
2023/10/12 14:57:45;;;;;;;2.13;1.92;;;;;;;19.82;55.86;96749.03;10290504;28;20113;-29
2023/10/12 15:02:48;;;;;;;2.37;1.77;;;;;;;19.78;55.70;96732.97;10293314;28;20034;-30
2023/10/12 15:07:48;;;;;;;2.85;1.95;;;;;;;19.81;55.77;96744.78;10283530;28;20049;-29
2023/10/12 15:12:50;;;;;;;2.95;2.08;;;;;;;19.82;55.64;96741.41;10286510;28;20508;-29
2023/10/12 15:17:54;;;;;;;2.80;2.40;;;;;;;19.81;55.80;96744.78;10271858;28;20121;-29
2023/10/12 15:22:57;;;;;;;1.60;1.38;;;;;;;19.81;55.92;96738.03;10274322;28;20023;-29
2023/10/12 15:27:57;;;;;;;2.38;2.03;;;;;;;19.81;55.94;96742.25;10279930;28;20045;-29
2023/10/12 15:32:59;;;;;;;2.20;1.97;;;;;;;19.81;55.56;96744.78;10277949;28;20043;-29
2023/10/12 15:38:02;;;;;;;2.53;1.60;;;;;;;19.82;55.77;96746.47;10275388;28;20314;-29
2023/10/12 15:43:14;;;;;;;3.53;1.60;;;;;;;19.80;55.77;96745.66;10272402;28;20043;-31
2023/10/12 15:48:15;;;;;;;2.90;1.58;;;;;;;19.82;55.67;96736.31;10286309;28;20481;-29
2023/10/12 15:53:16;;;;;;;2.13;1.50;;;;;;;19.82;55.82;96749.03;10274285;28;20035;-28
2023/10/12 15:58:17;;;;;;;2.35;1.83;;;;;;;19.81;55.71;96738.03;10275614;28;20093;-29
2023/10/12 16:03:19;;;;;;;6.37;2.70;;;;;;;19.84;56.08;96742.25;10275508;28;20027;-29
2023/10/12 16:08:21;;;;;;;1.95;1.40;;;;;;;19.80;55.64;96751.59;10291462;28;20033;-30
2023/10/12 16:13:22;;;;;;;5.25;1.83;;;;;;;19.87;55.76;96757.47;10285185;28;20059;-30
2023/10/12 16:18:23;;;;;;;6.90;2.85;;;;;;;19.87;55.80;96763.41;10291721;28;20041;-29
2023/10/12 16:23:23;;;;;;;7.68;3.25;;;;;;;19.90;56.91;96773.56;10285303;28;20114;-29
2023/10/12 16:28:24;;;;;;;9.73;4.03;;;;;;;19.90;55.96;96773.56;10281838;28;20031;-29
2023/10/12 16:33:24;;;;;;;2.17;1.83;;;;;;;19.87;55.59;96772.72;10288758;28;20047;-29
2023/10/12 16:38:25;;;;;;;9.70;3.33;;;;;;;19.84;55.80;96768.50;10287718;28;20298;-29
2023/10/12 16:43:28;;;;;;;5.60;2.95;;;;;;;19.89;55.97;96776.09;10291936;28;20027;-30
2023/10/12 16:48:31;;;;;;;2.03;1.50;;;;;;;19.86;55.54;96781.19;10287345;28;20073;-29
2023/10/12 16:53:31;;;;;;;3.75;2.28;;;;;;;19.84;55.83;96777.81;10281726;28;20872;-29
2023/10/12 16:58:31;;;;;;;2.42;1.80;;;;;;;19.85;55.90;96769.34;10284642;28;20035;-29
2023/10/12 17:03:35;;;;;;;4.67;1.90;;;;;;;19.88;55.95;96772.72;10285231;28;20464;-30
2023/10/12 17:08:37;;;;;;;3.45;2.17;;;;;;;19.88;55.87;96785.44;10284889;28;20027;-30
2023/10/12 17:13:37;;;;;;;3.42;2.05;;;;;;;19.88;55.59;96794.72;10296481;28;20062;-29
2023/10/12 17:18:38;;;;;;;8.00;1.60;;;;;;;19.89;55.56;96804.03;10282789;28;20053;-29
2023/10/12 17:23:38;;;;;;;14.97;3.23;;;;;;;19.87;56.01;96808.28;10290430;28;20031;-29
2023/10/12 17:28:38;;;;;;;4.97;1.97;;;;;;;19.85;55.99;96810.00;10289818;28;20042;-30
2023/10/12 17:33:39;;;;;;;6.55;2.08;;;;;;;19.85;55.78;96815.09;10282511;28;20117;-29
2023/10/12 17:38:41;;;;;;;5.30;2.17;;;;;;;19.85;55.79;96826.06;10290463;28;20045;-30
2023/10/12 17:43:43;;;;;;;8.60;3.33;;;;;;;19.89;56.38;96826.91;10289675;28;20047;-30
2023/10/12 17:48:43;;;;;;;4.37;1.83;;;;;;;19.87;55.94;96829.47;10273158;28;20038;-29
2023/10/12 17:53:44;;;;;;;4.22;1.63;;;;;;;19.86;55.88;96832.84;10224294;28;20043;-30
2023/10/12 17:58:44;;;;;;;5.78;2.00;;;;;;;19.86;55.99;96839.63;10240448;28;20431;-29
2023/10/12 18:03:46;;;;;;;6.40;2.35;;;;;;;19.87;55.96;96842.19;10277210;28;20090;-29
2023/10/12 18:08:47;;;;;;;7.72;2.70;;;;;;;19.87;56.16;96838.78;10278091;28;20030;-28
2023/10/12 18:13:47;;;;;;;6.07;2.30;;;;;;;19.90;56.32;96843.84;10281405;28;20520;-29
2023/10/12 18:18:48;;;;;;;4.20;2.60;;;;;;;19.89;56.18;96845.56;10280587;28;20046;-28
2023/10/12 18:23:50;;;;;;;4.70;2.00;;;;;;;19.86;56.04;96837.09;10280569;28;20034;-29
2023/10/12 18:28:51;;;;;;;3.58;1.88;;;;;;;19.85;55.36;96850.66;10279233;28;20082;-28
2023/10/12 18:33:51;;;;;;;6.43;1.80;;;;;;;19.85;55.70;96850.66;10272333;28;20054;-29
2023/10/12 18:38:51;;;;;;;3.47;1.95;;;;;;;19.87;55.63;96856.56;10280156;28;20042;-29
2023/10/12 18:43:52;;;;;;;11.20;4.00;;;;;;;19.94;58.39;96853.16;10282669;28;20038;-29
2023/10/12 18:48:52;;;;;;;7.50;2.50;;;;;;;19.96;56.62;96859.94;10282162;28;20454;-28
2023/10/12 18:53:55;;;;;;;2.35;2.00;;;;;;;19.90;55.92;96859.09;10283386;28;20417;-29
2023/10/12 18:58:55;;;;;;;4.18;2.72;;;;;;;19.88;55.88;96868.41;10282606;28;20488;-29
2023/10/12 19:03:56;;;;;;;4.07;3.17;;;;;;;19.85;55.80;96869.28;10285473;28;20114;-28
2023/10/12 19:08:58;;;;;;;10.60;4.53;;;;;;;19.96;59.49;96866.69;10281766;28;20412;-29
2023/10/12 19:13:58;;;;;;;7.13;3.25;;;;;;;19.93;56.55;96869.25;10281691;28;20045;-28
2023/10/12 19:18:59;;;;;;;2.87;1.90;;;;;;;19.85;55.95;96865.91;10286662;28;20049;-30
2023/10/12 19:24:00;;;;;;;2.67;1.70;;;;;;;19.85;55.76;96863.34;10295006;28;20058;-28
2023/10/12 19:29:00;;;;;;;5.05;2.25;;;;;;;19.86;55.87;96870.94;10273534;28;20038;-28
2023/10/12 19:34:00;;;;;;;5.07;3.30;;;;;;;19.95;56.88;96867.56;10288845;28;20031;-29
2023/10/12 19:39:01;;;;;;;2.92;1.92;;;;;;;19.85;55.82;96870.97;10285706;28;20035;-29
2023/10/12 19:44:05;;;;;;;3.00;2.17;;;;;;;19.85;55.89;96870.97;10284980;28;20023;-28
2023/10/12 19:49:08;;;;;;;3.58;1.58;;;;;;;19.83;56.06;96870.16;10288072;28;20034;-29
2023/10/12 19:54:09;;;;;;;2.33;1.55;;;;;;;19.85;55.80;96870.97;10285470;28;20467;-30
2023/10/12 19:59:11;;;;;;;2.22;1.50;;;;;;;19.74;55.03;96857.44;10285393;28;20045;-29
2023/10/12 20:04:20;;;;;;;2.00;1.27;;;;;;;19.82;55.48;96868.44;10283151;28;20490;-29
2023/10/12 20:09:27;;;;;;;1.20;1.10;;;;;;;19.81;55.26;96874.38;10288859;28;20108;-29
2023/10/12 20:14:27;;;;;;;2.33;1.60;;;;;;;19.80;55.16;96870.13;10293281;28;20043;-29
2023/10/12 20:19:28;;;;;;;1.20;0.90;;;;;;;19.79;55.29;96878.59;10293915;28;20050;-29
2023/10/12 20:24:32;;;;;;;2.17;1.73;;;;;;;19.70;55.33;96850.69;10290000;28;20314;-29
2023/10/12 20:29:33;;;;;;;3.80;1.10;;;;;;;19.82;55.26;96865.88;10286886;28;20084;-29
2023/10/12 20:34:36;;;;;;;3.35;1.30;;;;;;;19.81;55.41;96874.38;10288381;28;20046;-29
2023/10/12 20:39:38;;;;;;;1.40;1.20;;;;;;;19.81;55.80;96866.75;10288868;28;20034;-29
2023/10/12 20:44:41;;;;;;;1.30;1.20;;;;;;;19.83;55.37;96880.31;10288501;28;20563;-30
2023/10/12 20:49:42;;;;;;;1.98;1.40;;;;;;;19.84;55.29;96882.00;10288366;28;20174;-29
2023/10/12 20:54:43;;;;;;;2.40;1.42;;;;;;;19.83;55.46;96882.84;10291985;28;20390;-29
2023/10/12 20:59:46;;;;;;;3.13;1.77;;;;;;;19.82;55.39;96882.00;10291549;28;20038;-29
2023/10/12 21:04:49;;;;;;;2.15;1.33;;;;;;;19.82;55.71;96882.00;10291009;28;20527;-29
2023/10/12 21:10:12;;;;;;;2.10;1.55;;;;;;;19.83;55.44;96880.31;10289205;28;20434;-29
2023/10/12 21:15:23;;;;;;;1.20;1.10;;;;;;;19.81;55.39;96876.91;10287201;28;20031;-29
2023/10/12 21:25:33;;;;;;;;;;;;;;;19.82;55.36;96865.88;10288085;28;20109;-29
2023/10/12 21:30:36;;;;;;;2.20;1.52;;;;;;;19.82;55.74;96870.97;10288268;28;19932;-30
2023/10/12 21:35:42;;;;;;;2.15;1.88;;;;;;;19.82;55.67;96859.13;10290270;28;20035;-29
2023/10/12 21:40:43;;;;;;;1.77;1.47;;;;;;;19.81;55.76;96854.91;10291142;28;20109;-28
2023/10/12 21:45:47;;;;;;;2.35;1.58;;;;;;;19.81;55.68;96849.81;10289579;28;20294;-29
2023/10/12 21:50:48;;;;;;;1.98;1.35;;;;;;;19.81;55.52;96849.81;10289919;28;20047;-29
2023/10/12 21:55:58;;;;;;;1.90;1.60;;;;;;;19.83;55.58;96840.47;10290219;28;20030;-29
2023/10/12 22:00:58;;;;;;;1.35;1.25;;;;;;;19.82;55.50;96840.47;10289583;28;20290;-28
2023/10/12 22:05:59;;;;;;;1.77;1.33;;;;;;;19.83;55.63;96840.47;10289410;28;20042;-29
2023/10/12 22:10:59;;;;;;;2.97;1.67;;;;;;;19.83;55.61;96837.13;10289270;28;20039;-30
2023/10/12 22:16:03;;;;;;;2.03;1.40;;;;;;;19.81;55.79;96833.72;10288326;28;20070;-29
2023/10/12 22:21:03;;;;;;;1.80;1.55;;;;;;;19.84;55.28;96836.25;10288829;28;20400;-29
2023/10/12 22:26:04;;;;;;;2.13;1.50;;;;;;;19.82;55.86;96843.03;10289437;28;20044;-30
2023/10/12 22:31:07;;;;;;;2.05;1.67;;;;;;;19.82;55.49;96843.03;10289080;28;20043;-29
2023/10/12 22:36:08;;;;;;;2.38;1.25;;;;;;;19.83;55.87;96842.19;10282662;28;20035;-30
2023/10/12 22:41:08;;;;;;;2.23;1.43;;;;;;;19.81;55.54;96844.72;10287396;28;20046;-29
2023/10/12 22:46:10;;;;;;;3.17;1.27;;;;;;;19.82;55.69;96840.47;10289196;28;20034;-29
2023/10/12 22:51:11;;;;;;;1.25;1.08;;;;;;;19.81;55.53;96847.28;10289461;28;20306;-30
2023/10/12 22:56:13;;;;;;;1.17;0.98;;;;;;;19.81;55.55;96848.97;10288471;28;20038;-28
2023/10/12 23:01:16;;;;;;;1.92;1.23;;;;;;;19.82;55.70;96848.09;10289586;28;20050;-29
2023/10/12 23:06:16;;;;;;;3.45;1.70;;;;;;;19.84;55.68;96854.03;10283680;28;20038;-29
2023/10/12 23:11:20;;;;;;;1.13;0.87;;;;;;;19.84;55.59;96851.50;10287686;28;20031;-29
2023/10/12 23:16:31;;;;;;;1.52;1.35;;;;;;;19.83;55.75;96852.38;10288650;28;20035;-29
2023/10/12 23:21:38;;;;;;;2.47;1.67;;;;;;;19.84;55.78;96851.50;10288380;28;20054;-29
2023/10/12 23:26:39;;;;;;;5.93;2.83;;;;;;;19.85;56.13;96851.47;10287462;28;20038;-29
2023/10/12 23:31:40;;;;;;;5.35;2.63;;;;;;;19.87;55.87;96854.03;10288212;28;20527;-31
2023/10/12 23:36:43;;;;;;;2.00;1.38;;;;;;;19.85;56.03;96841.31;10285751;28;20038;-29
2023/10/12 23:41:45;;;;;;;2.13;1.42;;;;;;;19.84;55.59;96843.88;10287731;28;20034;-29
2023/10/12 23:46:51;;;;;;;1.10;1.00;;;;;;;19.83;55.83;96844.75;10287033;28;20129;-29
2023/10/12 23:51:52;;;;;;;;;;;;;;;19.82;55.82;96840.47;10286759;28;20045;-29
2023/10/12 23:57:02;;;;;;;2.03;1.17;;;;;;;19.81;55.58;96838.78;10285368;28;19921;-29
